sensor_id;sensor_type;location;lat;lon;timestamp;P1;durP1;ratioP1;P2;durP2;ratioP2
50555;SDS011;36508;52.512;13.450;2023-10-08T00:01:52;4.53;;;3.30;;
50555;SDS011;36508;52.512;13.450;2023-10-08T00:04:20;4.27;;;2.90;;
50555;SDS011;36508;52.512;13.450;2023-10-08T00:06:46;4.23;;;2.50;;
50555;SDS011;36508;52.512;13.450;2023-10-08T00:09:12;1.93;;;1.83;;
50555;SDS011;36508;52.512;13.450;2023-10-08T00:11:39;4.50;;;2.10;;
50555;SDS011;36508;52.512;13.450;2023-10-08T00:14:05;2.97;;;2.77;;
50555;SDS011;36508;52.512;13.450;2023-10-08T00:16:35;8.00;;;2.60;;
50555;SDS011;36508;52.512;13.450;2023-10-08T00:19:04;6.10;;;2.23;;
50555;SDS011;36508;52.512;13.450;2023-10-08T00:21:33;3.07;;;2.30;;
50555;SDS011;36508;52.512;13.450;2023-10-08T00:24:00;3.43;;;2.20;;
50555;SDS011;36508;52.512;13.450;2023-10-08T00:26:30;6.67;;;3.27;;
50555;SDS011;36508;52.512;13.450;2023-10-08T00:28:56;2.57;;;2.30;;
50555;SDS011;36508;52.512;13.450;2023-10-08T00:31:24;3.00;;;1.87;;
50555;SDS011;36508;52.512;13.450;2023-10-08T00:33:55;3.67;;;2.70;;
50555;SDS011;36508;52.512;13.450;2023-10-08T00:36:21;4.43;;;3.23;;
50555;SDS011;36508;52.512;13.450;2023-10-08T00:38:49;6.30;;;2.53;;
50555;SDS011;36508;52.512;13.450;2023-10-08T00:41:23;4.80;;;2.13;;
50555;SDS011;36508;52.512;13.450;2023-10-08T00:43:53;3.27;;;2.43;;
50555;SDS011;36508;52.512;13.450;2023-10-08T00:46:21;10.60;;;2.47;;
50555;SDS011;36508;52.512;13.450;2023-10-08T00:48:51;4.83;;;2.50;;
50555;SDS011;36508;52.512;13.450;2023-10-08T00:51:19;4.10;;;2.40;;
50555;SDS011;36508;52.512;13.450;2023-10-08T00:53:54;4.53;;;2.33;;
50555;SDS011;36508;52.512;13.450;2023-10-08T00:56:30;4.67;;;2.40;;
50555;SDS011;36508;52.512;13.450;2023-10-08T00:59:10;3.20;;;2.67;;
50555;SDS011;36508;52.512;13.450;2023-10-08T01:01:39;5.10;;;2.40;;
50555;SDS011;36508;52.512;13.450;2023-10-08T01:04:04;4.27;;;2.80;;
50555;SDS011;36508;52.512;13.450;2023-10-08T01:06:37;4.30;;;2.37;;
50555;SDS011;36508;52.512;13.450;2023-10-08T01:09:04;5.97;;;1.93;;
50555;SDS011;36508;52.512;13.450;2023-10-08T01:11:42;6.13;;;2.60;;
50555;SDS011;36508;52.512;13.450;2023-10-08T01:14:17;3.13;;;2.87;;
50555;SDS011;36508;52.512;13.450;2023-10-08T01:16:46;9.60;;;3.20;;
50555;SDS011;36508;52.512;13.450;2023-10-08T01:19:17;4.27;;;2.70;;
50555;SDS011;36508;52.512;13.450;2023-10-08T01:21:45;2.13;;;1.83;;
50555;SDS011;36508;52.512;13.450;2023-10-08T01:24:10;4.83;;;2.07;;
50555;SDS011;36508;52.512;13.450;2023-10-08T01:26:41;2.90;;;2.20;;
50555;SDS011;36508;52.512;13.450;2023-10-08T01:29:10;3.20;;;2.40;;
50555;SDS011;36508;52.512;13.450;2023-10-08T01:31:46;3.23;;;2.93;;
50555;SDS011;36508;52.512;13.450;2023-10-08T01:34:13;7.27;;;2.60;;
50555;SDS011;36508;52.512;13.450;2023-10-08T01:36:42;6.77;;;2.30;;
50555;SDS011;36508;52.512;13.450;2023-10-08T01:39:09;3.90;;;2.23;;
50555;SDS011;36508;52.512;13.450;2023-10-08T01:41:43;2.90;;;2.50;;
50555;SDS011;36508;52.512;13.450;2023-10-08T01:44:09;4.43;;;2.57;;
50555;SDS011;36508;52.512;13.450;2023-10-08T01:46:35;4.43;;;2.67;;
50555;SDS011;36508;52.512;13.450;2023-10-08T01:49:01;6.30;;;4.00;;
50555;SDS011;36508;52.512;13.450;2023-10-08T01:51:39;4.10;;;2.97;;
50555;SDS011;36508;52.512;13.450;2023-10-08T01:54:11;7.80;;;3.17;;
50555;SDS011;36508;52.512;13.450;2023-10-08T01:56:39;3.83;;;2.30;;
50555;SDS011;36508;52.512;13.450;2023-10-08T01:59:09;2.47;;;2.13;;
50555;SDS011;36508;52.512;13.450;2023-10-08T02:01:36;4.43;;;2.30;;
50555;SDS011;36508;52.512;13.450;2023-10-08T02:04:04;4.17;;;3.57;;
50555;SDS011;36508;52.512;13.450;2023-10-08T02:06:32;4.27;;;2.57;;
50555;SDS011;36508;52.512;13.450;2023-10-08T02:09:01;6.03;;;2.70;;
50555;SDS011;36508;52.512;13.450;2023-10-08T02:11:42;6.97;;;2.87;;
50555;SDS011;36508;52.512;13.450;2023-10-08T02:14:09;6.07;;;2.63;;
50555;SDS011;36508;52.512;13.450;2023-10-08T02:16:34;5.90;;;2.43;;
50555;SDS011;36508;52.512;13.450;2023-10-08T02:19:02;8.10;;;3.13;;
50555;SDS011;36508;52.512;13.450;2023-10-08T02:21:28;4.90;;;3.20;;
50555;SDS011;36508;52.512;13.450;2023-10-08T02:23:54;5.93;;;3.40;;
50555;SDS011;36508;52.512;13.450;2023-10-08T02:26:19;5.00;;;3.93;;
50555;SDS011;36508;52.512;13.450;2023-10-08T02:28:45;7.00;;;3.80;;
50555;SDS011;36508;52.512;13.450;2023-10-08T02:31:13;5.20;;;3.23;;
50555;SDS011;36508;52.512;13.450;2023-10-08T02:33:39;8.00;;;4.03;;
50555;SDS011;36508;52.512;13.450;2023-10-08T02:36:04;7.17;;;3.93;;
50555;SDS011;36508;52.512;13.450;2023-10-08T02:38:30;5.70;;;5.20;;
50555;SDS011;36508;52.512;13.450;2023-10-08T02:41:02;5.07;;;3.40;;
50555;SDS011;36508;52.512;13.450;2023-10-08T02:43:31;5.70;;;3.60;;
50555;SDS011;36508;52.512;13.450;2023-10-08T02:45:59;3.27;;;2.97;;
50555;SDS011;36508;52.512;13.450;2023-10-08T02:48:25;7.60;;;4.40;;
50555;SDS011;36508;52.512;13.450;2023-10-08T02:50:52;5.47;;;3.70;;
50555;SDS011;36508;52.512;13.450;2023-10-08T02:53:19;11.43;;;4.80;;
50555;SDS011;36508;52.512;13.450;2023-10-08T02:55:46;7.20;;;3.50;;
50555;SDS011;36508;52.512;13.450;2023-10-08T02:58:12;5.93;;;3.53;;
50555;SDS011;36508;52.512;13.450;2023-10-08T03:00:44;4.63;;;3.77;;
50555;SDS011;36508;52.512;13.450;2023-10-08T03:03:12;13.63;;;6.40;;
50555;SDS011;36508;52.512;13.450;2023-10-08T03:05:45;6.23;;;3.87;;
50555;SDS011;36508;52.512;13.450;2023-10-08T03:08:12;11.50;;;6.87;;
50555;SDS011;36508;52.512;13.450;2023-10-08T03:10:39;5.90;;;3.50;;
50555;SDS011;36508;52.512;13.450;2023-10-08T03:13:06;11.13;;;5.40;;
50555;SDS011;36508;52.512;13.450;2023-10-08T03:15:35;7.63;;;4.10;;
50555;SDS011;36508;52.512;13.450;2023-10-08T03:18:32;5.17;;;4.13;;
50555;SDS011;36508;52.512;13.450;2023-10-08T03:21:05;4.40;;;4.00;;
50555;SDS011;36508;52.512;13.450;2023-10-08T03:23:44;8.83;;;4.47;;
50555;SDS011;36508;52.512;13.450;2023-10-08T03:26:12;6.20;;;3.77;;
50555;SDS011;36508;52.512;13.450;2023-10-08T03:29:02;4.67;;;3.60;;
50555;SDS011;36508;52.512;13.450;2023-10-08T03:31:55;6.93;;;4.20;;
50555;SDS011;36508;52.512;13.450;2023-10-08T03:34:21;6.27;;;4.23;;
50555;SDS011;36508;52.512;13.450;2023-10-08T03:36:52;5.00;;;3.47;;
50555;SDS011;36508;52.512;13.450;2023-10-08T03:39:24;9.03;;;3.90;;
50555;SDS011;36508;52.512;13.450;2023-10-08T03:42:10;5.07;;;4.67;;
50555;SDS011;36508;52.512;13.450;2023-10-08T03:44:38;10.03;;;4.07;;
50555;SDS011;36508;52.512;13.450;2023-10-08T03:47:07;6.73;;;4.10;;
50555;SDS011;36508;52.512;13.450;2023-10-08T03:49:36;8.97;;;3.73;;
50555;SDS011;36508;52.512;13.450;2023-10-08T03:52:08;8.17;;;5.20;;
50555;SDS011;36508;52.512;13.450;2023-10-08T03:54:33;7.37;;;3.67;;
50555;SDS011;36508;52.512;13.450;2023-10-08T03:57:00;5.97;;;4.80;;
50555;SDS011;36508;52.512;13.450;2023-10-08T03:59:26;14.37;;;4.80;;
50555;SDS011;36508;52.512;13.450;2023-10-08T04:02:02;13.53;;;3.40;;
50555;SDS011;36508;52.512;13.450;2023-10-08T04:04:43;9.57;;;3.83;;
50555;SDS011;36508;52.512;13.450;2023-10-08T04:07:22;6.40;;;5.80;;
50555;SDS011;36508;52.512;13.450;2023-10-08T04:09:57;5.70;;;3.70;;
50555;SDS011;36508;52.512;13.450;2023-10-08T04:12:50;6.10;;;3.93;;
50555;SDS011;36508;52.512;13.450;2023-10-08T04:15:18;7.10;;;3.93;;
50555;SDS011;36508;52.512;13.450;2023-10-08T04:17:44;4.37;;;3.40;;
50555;SDS011;36508;52.512;13.450;2023-10-08T04:20:14;13.97;;;4.70;;
50555;SDS011;36508;52.512;13.450;2023-10-08T04:22:59;6.13;;;3.30;;
50555;SDS011;36508;52.512;13.450;2023-10-08T04:25:28;7.23;;;3.50;;
50555;SDS011;36508;52.512;13.450;2023-10-08T04:27:58;8.13;;;3.10;;
50555;SDS011;36508;52.512;13.450;2023-10-08T04:30:32;8.60;;;4.17;;
50555;SDS011;36508;52.512;13.450;2023-10-08T04:32:59;4.30;;;4.00;;
50555;SDS011;36508;52.512;13.450;2023-10-08T04:35:31;3.77;;;3.10;;
50555;SDS011;36508;52.512;13.450;2023-10-08T04:38:12;6.13;;;4.10;;
50555;SDS011;36508;52.512;13.450;2023-10-08T04:40:43;5.53;;;4.10;;
50555;SDS011;36508;52.512;13.450;2023-10-08T04:43:22;5.43;;;3.80;;
50555;SDS011;36508;52.512;13.450;2023-10-08T04:45:58;7.80;;;4.73;;
50555;SDS011;36508;52.512;13.450;2023-10-08T04:48:45;8.10;;;3.73;;
50555;SDS011;36508;52.512;13.450;2023-10-08T04:51:11;6.40;;;4.50;;
50555;SDS011;36508;52.512;13.450;2023-10-08T04:53:38;6.87;;;3.27;;
50555;SDS011;36508;52.512;13.450;2023-10-08T04:56:09;7.73;;;3.27;;
50555;SDS011;36508;52.512;13.450;2023-10-08T04:58:41;5.77;;;3.40;;
50555;SDS011;36508;52.512;13.450;2023-10-08T05:01:11;7.77;;;3.30;;
50555;SDS011;36508;52.512;13.450;2023-10-08T05:04:03;6.27;;;3.30;;
50555;SDS011;36508;52.512;13.450;2023-10-08T05:06:31;5.33;;;2.87;;
50555;SDS011;36508;52.512;13.450;2023-10-08T05:09:03;7.50;;;4.10;;
50555;SDS011;36508;52.512;13.450;2023-10-08T05:11:46;4.40;;;3.43;;
50555;SDS011;36508;52.512;13.450;2023-10-08T05:14:15;7.23;;;3.47;;
50555;SDS011;36508;52.512;13.450;2023-10-08T05:17:06;13.30;;;4.33;;
50555;SDS011;36508;52.512;13.450;2023-10-08T05:19:39;11.03;;;4.50;;
50555;SDS011;36508;52.512;13.450;2023-10-08T05:22:06;10.23;;;5.30;;
50555;SDS011;36508;52.512;13.450;2023-10-08T05:25:06;5.50;;;4.00;;
50555;SDS011;36508;52.512;13.450;2023-10-08T05:27:44;6.60;;;4.30;;
50555;SDS011;36508;52.512;13.450;2023-10-08T05:32:41;3.80;;;3.03;;
50555;SDS011;36508;52.512;13.450;2023-10-08T05:35:37;8.97;;;3.90;;
50555;SDS011;36508;52.512;13.450;2023-10-08T05:38:07;6.77;;;4.33;;
50555;SDS011;36508;52.512;13.450;2023-10-08T05:40:52;5.30;;;4.80;;
50555;SDS011;36508;52.512;13.450;2023-10-08T05:43:21;7.07;;;3.80;;
50555;SDS011;36508;52.512;13.450;2023-10-08T05:46:04;6.23;;;4.40;;
50555;SDS011;36508;52.512;13.450;2023-10-08T05:49:07;6.43;;;3.20;;
50555;SDS011;36508;52.512;13.450;2023-10-08T05:51:33;9.33;;;4.80;;
50555;SDS011;36508;52.512;13.450;2023-10-08T05:57:10;6.03;;;3.77;;
50555;SDS011;36508;52.512;13.450;2023-10-08T05:59:39;12.77;;;5.47;;
50555;SDS011;36508;52.512;13.450;2023-10-08T06:02:38;5.00;;;3.83;;
50555;SDS011;36508;52.512;13.450;2023-10-08T06:05:11;8.13;;;3.50;;
50555;SDS011;36508;52.512;13.450;2023-10-08T06:07:41;5.93;;;3.03;;
50555;SDS011;36508;52.512;13.450;2023-10-08T06:10:19;7.27;;;4.63;;
50555;SDS011;36508;52.512;13.450;2023-10-08T06:12:55;5.07;;;3.30;;
50555;SDS011;36508;52.512;13.450;2023-10-08T06:18:16;5.93;;;3.67;;
50555;SDS011;36508;52.512;13.450;2023-10-08T06:20:54;3.77;;;3.33;;
50555;SDS011;36508;52.512;13.450;2023-10-08T06:23:26;6.63;;;3.30;;
50555;SDS011;36508;52.512;13.450;2023-10-08T06:25:54;5.23;;;3.00;;
50555;SDS011;36508;52.512;13.450;2023-10-08T06:28:36;5.33;;;2.63;;
50555;SDS011;36508;52.512;13.450;2023-10-08T06:31:06;7.73;;;3.53;;
50555;SDS011;36508;52.512;13.450;2023-10-08T06:33:42;8.10;;;5.90;;
50555;SDS011;36508;52.512;13.450;2023-10-08T06:36:12;5.23;;;3.00;;
50555;SDS011;36508;52.512;13.450;2023-10-08T06:38:49;6.30;;;2.67;;
50555;SDS011;36508;52.512;13.450;2023-10-08T06:41:15;9.03;;;3.17;;
50555;SDS011;36508;52.512;13.450;2023-10-08T06:43:45;8.30;;;2.90;;
50555;SDS011;36508;52.512;13.450;2023-10-08T06:46:18;6.77;;;3.50;;
50555;SDS011;36508;52.512;13.450;2023-10-08T06:48:46;6.20;;;3.60;;
50555;SDS011;36508;52.512;13.450;2023-10-08T06:51:14;4.67;;;2.60;;
50555;SDS011;36508;52.512;13.450;2023-10-08T06:53:43;4.00;;;2.60;;
50555;SDS011;36508;52.512;13.450;2023-10-08T06:56:10;5.20;;;3.30;;
50555;SDS011;36508;52.512;13.450;2023-10-08T06:58:39;7.20;;;2.40;;
50555;SDS011;36508;52.512;13.450;2023-10-08T07:01:10;5.67;;;4.33;;
50555;SDS011;36508;52.512;13.450;2023-10-08T07:03:38;3.27;;;2.70;;
50555;SDS011;36508;52.512;13.450;2023-10-08T07:06:03;5.03;;;2.47;;
50555;SDS011;36508;52.512;13.450;2023-10-08T07:08:42;3.00;;;2.10;;
50555;SDS011;36508;52.512;13.450;2023-10-08T07:11:11;4.57;;;2.10;;
50555;SDS011;36508;52.512;13.450;2023-10-08T07:13:37;8.23;;;3.07;;
50555;SDS011;36508;52.512;13.450;2023-10-08T07:16:05;4.80;;;1.90;;
50555;SDS011;36508;52.512;13.450;2023-10-08T07:18:36;3.03;;;1.90;;
50555;SDS011;36508;52.512;13.450;2023-10-08T07:21:02;3.50;;;1.90;;
50555;SDS011;36508;52.512;13.450;2023-10-08T07:23:29;5.13;;;3.23;;
50555;SDS011;36508;52.512;13.450;2023-10-08T07:26:03;4.70;;;2.50;;
50555;SDS011;36508;52.512;13.450;2023-10-08T07:28:43;3.67;;;2.90;;
50555;SDS011;36508;52.512;13.450;2023-10-08T07:31:14;4.00;;;2.00;;
50555;SDS011;36508;52.512;13.450;2023-10-08T07:33:41;2.30;;;2.10;;
50555;SDS011;36508;52.512;13.450;2023-10-08T07:36:08;4.73;;;2.20;;
50555;SDS011;36508;52.512;13.450;2023-10-08T07:38:41;3.77;;;2.13;;
50555;SDS011;36508;52.512;13.450;2023-10-08T07:41:10;3.50;;;2.00;;
50555;SDS011;36508;52.512;13.450;2023-10-08T07:43:43;3.97;;;2.37;;
50555;SDS011;36508;52.512;13.450;2023-10-08T07:46:20;4.40;;;2.10;;
50555;SDS011;36508;52.512;13.450;2023-10-08T07:48:51;4.07;;;2.00;;
50555;SDS011;36508;52.512;13.450;2023-10-08T07:51:17;3.50;;;1.60;;
50555;SDS011;36508;52.512;13.450;2023-10-08T07:53:49;5.53;;;2.43;;
50555;SDS011;36508;52.512;13.450;2023-10-08T07:56:25;5.70;;;1.90;;
50555;SDS011;36508;52.512;13.450;2023-10-08T07:58:51;3.37;;;1.90;;
50555;SDS011;36508;52.512;13.450;2023-10-08T08:01:20;2.27;;;1.97;;
50555;SDS011;36508;52.512;13.450;2023-10-08T08:03:46;1.63;;;1.30;;
50555;SDS011;36508;52.512;13.450;2023-10-08T08:06:14;2.67;;;1.90;;
50555;SDS011;36508;52.512;13.450;2023-10-08T08:08:40;7.50;;;1.87;;
50555;SDS011;36508;52.512;13.450;2023-10-08T08:11:06;3.13;;;2.07;;
50555;SDS011;36508;52.512;13.450;2023-10-08T08:13:37;1.57;;;1.47;;
50555;SDS011;36508;52.512;13.450;2023-10-08T08:16:07;3.27;;;1.60;;
50555;SDS011;36508;52.512;13.450;2023-10-08T08:18:51;2.10;;;1.43;;
50555;SDS011;36508;52.512;13.450;2023-10-08T08:21:20;1.83;;;1.40;;
50555;SDS011;36508;52.512;13.450;2023-10-08T08:23:51;1.93;;;1.60;;
50555;SDS011;36508;52.512;13.450;2023-10-08T08:26:21;4.60;;;1.77;;
50555;SDS011;36508;52.512;13.450;2023-10-08T08:29:01;1.53;;;1.43;;
50555;SDS011;36508;52.512;13.450;2023-10-08T08:31:27;2.50;;;1.20;;
50555;SDS011;36508;52.512;13.450;2023-10-08T08:33:57;2.90;;;2.60;;
50555;SDS011;36508;52.512;13.450;2023-10-08T08:36:43;2.40;;;1.63;;
50555;SDS011;36508;52.512;13.450;2023-10-08T08:39:13;2.00;;;1.80;;
50555;SDS011;36508;52.512;13.450;2023-10-08T08:41:52;2.13;;;1.57;;
50555;SDS011;36508;52.512;13.450;2023-10-08T08:44:27;1.83;;;1.63;;
50555;SDS011;36508;52.512;13.450;2023-10-08T08:46:58;2.80;;;1.20;;
50555;SDS011;36508;52.512;13.450;2023-10-08T08:49:29;1.30;;;1.20;;
50555;SDS011;36508;52.512;13.450;2023-10-08T08:51:59;1.73;;;1.50;;
50555;SDS011;36508;52.512;13.450;2023-10-08T08:54:28;5.00;;;4.03;;
50555;SDS011;36508;52.512;13.450;2023-10-08T08:56:57;1.37;;;1.27;;
50555;SDS011;36508;52.512;13.450;2023-10-08T08:59:29;0.90;;;0.90;;
50555;SDS011;36508;52.512;13.450;2023-10-08T09:01:58;2.03;;;0.90;;
50555;SDS011;36508;52.512;13.450;2023-10-08T09:04:30;1.20;;;1.10;;
50555;SDS011;36508;52.512;13.450;2023-10-08T09:07:00;1.20;;;1.20;;
50555;SDS011;36508;52.512;13.450;2023-10-08T09:09:33;2.23;;;1.53;;
50555;SDS011;36508;52.512;13.450;2023-10-08T09:12:00;1.30;;;0.93;;
50555;SDS011;36508;52.512;13.450;2023-10-08T09:14:26;1.03;;;0.97;;
50555;SDS011;36508;52.512;13.450;2023-10-08T09:16:59;2.27;;;1.07;;
50555;SDS011;36508;52.512;13.450;2023-10-08T09:19:29;1.60;;;1.50;;
50555;SDS011;36508;52.512;13.450;2023-10-08T09:22:07;1.57;;;1.27;;
50555;SDS011;36508;52.512;13.450;2023-10-08T09:24:43;1.90;;;0.90;;
50555;SDS011;36508;52.512;13.450;2023-10-08T09:27:54;1.80;;;0.97;;
50555;SDS011;36508;52.512;13.450;2023-10-08T09:30:37;2.60;;;1.00;;
50555;SDS011;36508;52.512;13.450;2023-10-08T09:33:07;2.50;;;2.03;;
50555;SDS011;36508;52.512;13.450;2023-10-08T09:35:33;3.20;;;1.30;;
50555;SDS011;36508;52.512;13.450;2023-10-08T09:38:01;0.93;;;0.80;;
50555;SDS011;36508;52.512;13.450;2023-10-08T09:40:28;1.70;;;1.13;;
50555;SDS011;36508;52.512;13.450;2023-10-08T09:42:54;1.00;;;0.90;;
50555;SDS011;36508;52.512;13.450;2023-10-08T09:45:23;2.63;;;1.10;;
50555;SDS011;36508;52.512;13.450;2023-10-08T09:47:53;1.30;;;1.20;;
50555;SDS011;36508;52.512;13.450;2023-10-08T09:50:31;1.47;;;1.37;;
50555;SDS011;36508;52.512;13.450;2023-10-08T09:53:11;1.47;;;0.90;;
50555;SDS011;36508;52.512;13.450;2023-10-08T09:55:54;1.13;;;1.03;;
50555;SDS011;36508;52.512;13.450;2023-10-08T09:58:24;0.80;;;0.80;;
50555;SDS011;36508;52.512;13.450;2023-10-08T10:00:52;4.80;;;1.47;;
50555;SDS011;36508;52.512;13.450;2023-10-08T10:03:22;3.83;;;1.10;;
50555;SDS011;36508;52.512;13.450;2023-10-08T10:05:51;1.43;;;1.33;;
50555;SDS011;36508;52.512;13.450;2023-10-08T10:08:17;1.60;;;1.20;;
50555;SDS011;36508;52.512;13.450;2023-10-08T10:10:45;8.57;;;1.27;;
50555;SDS011;36508;52.512;13.450;2023-10-08T10:13:13;0.90;;;0.90;;
50555;SDS011;36508;52.512;13.450;2023-10-08T10:15:42;1.53;;;1.43;;
50555;SDS011;36508;52.512;13.450;2023-10-08T10:18:09;0.80;;;0.80;;
50555;SDS011;36508;52.512;13.450;2023-10-08T10:20:56;2.70;;;1.20;;
50555;SDS011;36508;52.512;13.450;2023-10-08T10:26:45;1.00;;;1.00;;
50555;SDS011;36508;52.512;13.450;2023-10-08T10:29:19;1.00;;;0.90;;
50555;SDS011;36508;52.512;13.450;2023-10-08T10:31:47;2.10;;;1.93;;
50555;SDS011;36508;52.512;13.450;2023-10-08T10:34:15;0.70;;;0.70;;
50555;SDS011;36508;52.512;13.450;2023-10-08T10:36:57;1.57;;;1.47;;
50555;SDS011;36508;52.512;13.450;2023-10-08T10:39:24;0.90;;;0.80;;
50555;SDS011;36508;52.512;13.450;2023-10-08T10:41:52;0.90;;;0.80;;
50555;SDS011;36508;52.512;13.450;2023-10-08T10:44:23;0.90;;;0.90;;
50555;SDS011;36508;52.512;13.450;2023-10-08T10:46:50;1.00;;;0.90;;
50555;SDS011;36508;52.512;13.450;2023-10-08T10:49:16;1.23;;;1.13;;
50555;SDS011;36508;52.512;13.450;2023-10-08T10:52:09;1.43;;;1.33;;
50555;SDS011;36508;52.512;13.450;2023-10-08T10:54:43;1.17;;;1.10;;
50555;SDS011;36508;52.512;13.450;2023-10-08T10:57:24;1.10;;;1.00;;
50555;SDS011;36508;52.512;13.450;2023-10-08T11:00:01;1.20;;;1.20;;
50555;SDS011;36508;52.512;13.450;2023-10-08T11:02:43;2.00;;;1.90;;
50555;SDS011;36508;52.512;13.450;2023-10-08T11:05:13;1.30;;;1.20;;
50555;SDS011;36508;52.512;13.450;2023-10-08T11:07:45;1.93;;;1.83;;
50555;SDS011;36508;52.512;13.450;2023-10-08T11:10:13;2.33;;;2.13;;
50555;SDS011;36508;52.512;13.450;2023-10-08T11:12:40;1.47;;;1.37;;
50555;SDS011;36508;52.512;13.450;2023-10-08T11:15:12;1.93;;;1.33;;
50555;SDS011;36508;52.512;13.450;2023-10-08T11:17:42;1.20;;;1.20;;
50555;SDS011;36508;52.512;13.450;2023-10-08T11:22:52;1.17;;;1.10;;
50555;SDS011;36508;52.512;13.450;2023-10-08T11:25:58;0.97;;;0.97;;
50555;SDS011;36508;52.512;13.450;2023-10-08T11:28:28;1.20;;;1.10;;
50555;SDS011;36508;52.512;13.450;2023-10-08T11:30:55;1.27;;;1.17;;
50555;SDS011;36508;52.512;13.450;2023-10-08T11:33:24;3.17;;;1.30;;
50555;SDS011;36508;52.512;13.450;2023-10-08T11:36:00;1.60;;;1.50;;
50555;SDS011;36508;52.512;13.450;2023-10-08T11:38:39;1.57;;;1.20;;
50555;SDS011;36508;52.512;13.450;2023-10-08T11:41:13;1.67;;;1.07;;
50555;SDS011;36508;52.512;13.450;2023-10-08T11:46:19;0.93;;;0.90;;
50555;SDS011;36508;52.512;13.450;2023-10-08T11:48:45;2.70;;;1.60;;
50555;SDS011;36508;52.512;13.450;2023-10-08T11:51:12;1.27;;;1.17;;
50555;SDS011;36508;52.512;13.450;2023-10-08T11:53:42;1.37;;;1.27;;
50555;SDS011;36508;52.512;13.450;2023-10-08T11:56:11;0.90;;;0.80;;
50555;SDS011;36508;52.512;13.450;2023-10-08T11:58:41;2.30;;;1.20;;
50555;SDS011;36508;52.512;13.450;2023-10-08T12:01:12;2.00;;;1.30;;
50555;SDS011;36508;52.512;13.450;2023-10-08T12:03:43;1.20;;;1.10;;
50555;SDS011;36508;52.512;13.450;2023-10-08T12:06:14;1.43;;;1.17;;
50555;SDS011;36508;52.512;13.450;2023-10-08T12:08:41;1.63;;;1.53;;
50555;SDS011;36508;52.512;13.450;2023-10-08T12:11:10;1.80;;;1.70;;
50555;SDS011;36508;52.512;13.450;2023-10-08T12:13:39;5.00;;;1.87;;
50555;SDS011;36508;52.512;13.450;2023-10-08T12:16:15;1.10;;;1.00;;
50555;SDS011;36508;52.512;13.450;2023-10-08T12:18:46;0.80;;;0.80;;
50555;SDS011;36508;52.512;13.450;2023-10-08T12:21:19;2.87;;;1.03;;
50555;SDS011;36508;52.512;13.450;2023-10-08T12:23:45;1.27;;;1.00;;
50555;SDS011;36508;52.512;13.450;2023-10-08T12:26:12;1.97;;;1.40;;
50555;SDS011;36508;52.512;13.450;2023-10-08T12:28:47;1.57;;;1.10;;
50555;SDS011;36508;52.512;13.450;2023-10-08T12:31:16;2.40;;;2.20;;
50555;SDS011;36508;52.512;13.450;2023-10-08T12:33:50;2.40;;;1.90;;
50555;SDS011;36508;52.512;13.450;2023-10-08T12:36:24;1.23;;;1.10;;
50555;SDS011;36508;52.512;13.450;2023-10-08T12:38:52;1.53;;;1.07;;
50555;SDS011;36508;52.512;13.450;2023-10-08T12:41:24;2.17;;;1.00;;
50555;SDS011;36508;52.512;13.450;2023-10-08T12:43:59;1.13;;;1.03;;
50555;SDS011;36508;52.512;13.450;2023-10-08T12:46:25;1.10;;;0.93;;
50555;SDS011;36508;52.512;13.450;2023-10-08T12:48:54;1.20;;;1.10;;
50555;SDS011;36508;52.512;13.450;2023-10-08T12:51:26;1.20;;;1.00;;
50555;SDS011;36508;52.512;13.450;2023-10-08T12:53:57;0.90;;;0.90;;
50555;SDS011;36508;52.512;13.450;2023-10-08T12:56:24;1.80;;;1.00;;
50555;SDS011;36508;52.512;13.450;2023-10-08T12:59:00;2.30;;;1.63;;
50555;SDS011;36508;52.512;13.450;2023-10-08T13:01:29;1.90;;;1.10;;
50555;SDS011;36508;52.512;13.450;2023-10-08T13:03:58;1.93;;;1.30;;
50555;SDS011;36508;52.512;13.450;2023-10-08T13:06:32;3.03;;;1.27;;
50555;SDS011;36508;52.512;13.450;2023-10-08T13:09:06;1.20;;;1.10;;
50555;SDS011;36508;52.512;13.450;2023-10-08T13:14:19;3.03;;;1.20;;
50555;SDS011;36508;52.512;13.450;2023-10-08T13:16:48;1.33;;;1.07;;
50555;SDS011;36508;52.512;13.450;2023-10-08T13:19:18;1.07;;;1.03;;
50555;SDS011;36508;52.512;13.450;2023-10-08T13:21:44;1.67;;;0.83;;
50555;SDS011;36508;52.512;13.450;2023-10-08T13:24:10;1.40;;;1.30;;
50555;SDS011;36508;52.512;13.450;2023-10-08T13:26:36;0.90;;;0.90;;
50555;SDS011;36508;52.512;13.450;2023-10-08T13:29:03;1.90;;;1.80;;
50555;SDS011;36508;52.512;13.450;2023-10-08T13:31:30;1.47;;;1.37;;
50555;SDS011;36508;52.512;13.450;2023-10-08T13:34:01;2.40;;;1.20;;
50555;SDS011;36508;52.512;13.450;2023-10-08T13:36:29;1.83;;;1.60;;
50555;SDS011;36508;52.512;13.450;2023-10-08T13:38:55;1.33;;;1.10;;
50555;SDS011;36508;52.512;13.450;2023-10-08T13:41:21;4.00;;;2.23;;
50555;SDS011;36508;52.512;13.450;2023-10-08T13:43:48;1.60;;;1.40;;
50555;SDS011;36508;52.512;13.450;2023-10-08T13:46:27;1.33;;;1.10;;
50555;SDS011;36508;52.512;13.450;2023-10-08T13:48:52;1.17;;;1.07;;
50555;SDS011;36508;52.512;13.450;2023-10-08T13:51:19;2.30;;;2.17;;
50555;SDS011;36508;52.512;13.450;2023-10-08T13:53:49;1.10;;;1.00;;
50555;SDS011;36508;52.512;13.450;2023-10-08T13:56:19;1.47;;;1.20;;
50555;SDS011;36508;52.512;13.450;2023-10-08T13:58:50;1.63;;;1.40;;
50555;SDS011;36508;52.512;13.450;2023-10-08T14:01:21;0.80;;;0.80;;
50555;SDS011;36508;52.512;13.450;2023-10-08T14:03:49;1.27;;;1.00;;
50555;SDS011;36508;52.512;13.450;2023-10-08T14:06:18;1.57;;;1.10;;
50555;SDS011;36508;52.512;13.450;2023-10-08T14:08:47;1.30;;;1.20;;
50555;SDS011;36508;52.512;13.450;2023-10-08T14:11:19;1.90;;;1.30;;
50555;SDS011;36508;52.512;13.450;2023-10-08T14:13:49;1.43;;;1.33;;
50555;SDS011;36508;52.512;13.450;2023-10-08T14:16:18;2.40;;;2.20;;
50555;SDS011;36508;52.512;13.450;2023-10-08T14:18:48;6.50;;;1.20;;
50555;SDS011;36508;52.512;13.450;2023-10-08T14:21:24;2.20;;;1.27;;
50555;SDS011;36508;52.512;13.450;2023-10-08T14:23:55;1.77;;;1.60;;
50555;SDS011;36508;52.512;13.450;2023-10-08T14:26:28;1.50;;;1.40;;
50555;SDS011;36508;52.512;13.450;2023-10-08T14:29:01;1.10;;;1.00;;
50555;SDS011;36508;52.512;13.450;2023-10-08T14:31:36;1.23;;;1.13;;
50555;SDS011;36508;52.512;13.450;2023-10-08T14:34:04;2.37;;;1.83;;
50555;SDS011;36508;52.512;13.450;2023-10-08T14:36:33;3.73;;;3.43;;
50555;SDS011;36508;52.512;13.450;2023-10-08T14:39:18;4.33;;;3.23;;
50555;SDS011;36508;52.512;13.450;2023-10-08T14:42:03;1.60;;;1.50;;
50555;SDS011;36508;52.512;13.450;2023-10-08T14:44:47;1.93;;;1.47;;
50555;SDS011;36508;52.512;13.450;2023-10-08T14:47:15;1.67;;;1.27;;
50555;SDS011;36508;52.512;13.450;2023-10-08T14:49:41;1.90;;;1.10;;
50555;SDS011;36508;52.512;13.450;2023-10-08T14:52:11;3.37;;;1.33;;
50555;SDS011;36508;52.512;13.450;2023-10-08T14:54:37;1.47;;;1.37;;
50555;SDS011;36508;52.512;13.450;2023-10-08T14:57:03;1.67;;;1.57;;
50555;SDS011;36508;52.512;13.450;2023-10-08T14:59:30;1.20;;;1.10;;
50555;SDS011;36508;52.512;13.450;2023-10-08T15:01:57;2.20;;;1.80;;
50555;SDS011;36508;52.512;13.450;2023-10-08T15:04:26;1.97;;;1.60;;
50555;SDS011;36508;52.512;13.450;2023-10-08T15:06:53;2.63;;;1.10;;
50555;SDS011;36508;52.512;13.450;2023-10-08T15:09:20;1.43;;;1.13;;
50555;SDS011;36508;52.512;13.450;2023-10-08T15:11:51;2.60;;;2.10;;
50555;SDS011;36508;52.512;13.450;2023-10-08T15:14:20;2.13;;;1.93;;
50555;SDS011;36508;52.512;13.450;2023-10-08T15:16:48;1.17;;;1.07;;
50555;SDS011;36508;52.512;13.450;2023-10-08T15:19:19;1.57;;;1.47;;